Time;durP1;ratioP1;P1;durP2;ratioP2;P2;SDS_P1;SDS_P2;PMS_P1;PMS_P2;Temp;Humidity;BMP_temperature;BMP_pressure;BME280_temperature;BME280_humidity;BME280_pressure;Samples;Min_cycle;Max_cycle;Signal;HPM_P1;HPM_P2
2021/01/01 00:10:12;;;;;;;16.80;10.40;;;2.00;99.90;;;;;;6210819;23;20008;-95
2021/01/01 00:18:08;;;;;;;20.80;10.67;;;2.10;99.90;;;;;;6203884;23;20671;-95
2021/01/01 00:20:48;;;;;;;15.87;9.63;;;2.10;99.90;;;;;;6184382;23;20001;-95
2021/01/01 00:23:18;;;;;;;16.47;9.93;;;2.10;99.90;;;;;;6206229;23;19997;-93
2021/01/01 00:25:45;;;;;;;15.47;9.90;;;2.10;99.90;;;;;;6209749;23;20025;-95
2021/01/01 00:28:18;;;;;;;15.37;9.70;;;2.10;99.90;;;;;;6209924;23;20020;-95
2021/01/01 01:04:38;;;;;;;14.00;8.10;;;2.10;99.90;;;;;;6209586;23;20005;-95
2021/01/01 01:07:05;;;;;;;13.47;8.17;;;2.10;99.90;;;;;;6211743;23;19993;-95
2021/01/01 01:09:31;;;;;;;12.20;7.87;;;2.10;99.90;;;;;;6185516;23;19985;-96
2021/01/01 01:11:56;;;;;;;12.47;8.07;;;2.10;99.90;;;;;;6190256;23;20044;-95
2021/01/01 01:14:22;;;;;;;13.67;8.30;;;2.20;99.90;;;;;;6210750;23;19985;-95
2021/01/01 01:16:49;;;;;;;13.50;7.80;;;2.10;99.90;;;;;;6211701;23;19985;-95
2021/01/01 01:19:15;;;;;;;12.60;7.97;;;2.10;99.90;;;;;;6212211;23;19993;-96
2021/01/01 01:21:41;;;;;;;12.37;7.80;;;2.10;99.90;;;;;;6210934;23;19996;-95
2021/01/01 01:24:07;;;;;;;11.13;7.40;;;2.10;99.90;;;;;;6211473;23;20000;-95
2021/01/01 01:26:33;;;;;;;13.33;8.07;;;2.10;99.90;;;;;;6211996;23;20012;-96
2021/01/01 01:28:59;;;;;;;13.10;8.80;;;2.10;99.90;;;;;;6211557;23;19993;-96
2021/01/01 01:31:25;;;;;;;12.73;8.20;;;2.10;99.90;;;;;;6211368;23;19989;-95
2021/01/01 01:33:50;;;;;;;11.77;7.20;;;2.20;99.90;;;;;;6211233;23;19985;-96
2021/01/01 01:36:16;;;;;;;12.20;7.43;;;2.20;99.90;;;;;;6211999;23;20033;-95
2021/01/01 01:38:42;;;;;;;12.20;7.80;;;2.20;99.90;;;;;;6211526;23;19991;-96
2021/01/01 01:41:08;;;;;;;11.73;7.63;;;2.20;99.90;;;;;;6211561;23;20008;-96
2021/01/01 01:43:34;;;;;;;12.70;8.07;;;2.30;99.90;;;;;;6211859;23;20031;-96
2021/01/01 01:46:00;;;;;;;12.47;7.57;;;2.20;99.90;;;;;;6208700;23;19985;-96
2021/01/01 01:51:45;;;;;;;12.13;7.20;;;2.30;99.90;;;;;;6198991;23;20007;-96
2021/01/01 01:54:11;;;;;;;11.97;7.87;;;2.20;99.90;;;;;;6211085;23;19985;-96
2021/01/01 02:00:35;;;;;;;13.40;7.93;;;2.30;99.90;;;;;;6150701;23;20028;-96
2021/01/01 02:03:13;;;;;;;;;;;;;;;;;;;;;
2021/01/01 02:05:39;;;;;;;13.50;8.53;;;2.20;99.90;;;;;;6208137;23;19993;-96
2021/01/01 02:08:05;;;;;;;13.13;8.80;;;2.20;99.90;;;;;;6211415;23;19995;-95
2021/01/01 02:10:34;;;;;;;12.67;8.17;;;2.20;99.90;;;;;;6211998;23;20045;-95
2021/01/01 02:13:01;;;;;;;13.67;8.77;;;2.20;99.90;;;;;;6202521;23;20003;-96
2021/01/01 02:15:30;;;;;;;14.17;8.50;;;2.20;99.90;;;;;;6211573;23;20000;-96
2021/01/01 02:17:57;;;;;;;12.23;8.23;;;2.20;99.90;;;;;;6212069;23;20068;-95
2021/01/01 02:20:23;;;;;;;15.60;9.00;;;2.20;99.90;;;;;;6211198;23;20020;-95
2021/01/01 02:22:50;;;;;;;15.93;9.60;;;2.20;99.90;;;;;;6211414;23;19985;-96
2021/01/01 02:25:16;;;;;;;14.53;9.27;;;2.20;99.90;;;;;;6211826;23;20023;-96
2021/01/01 02:27:45;;;;;;;16.17;9.53;;;2.30;99.90;;;;;;6211729;23;19985;-96
2021/01/01 02:30:12;;;;;;;15.10;10.03;;;2.30;99.90;;;;;;6211174;23;19985;-96
2021/01/01 02:32:42;;;;;;;16.33;9.53;;;2.30;99.90;;;;;;6236706;23;19993;-95
2021/01/01 02:35:09;;;;;;;15.23;9.47;;;2.20;99.90;;;;;;6211993;23;19985;-96
2021/01/01 02:37:35;;;;;;;17.43;9.90;;;2.40;99.90;;;;;;6211941;23;19996;-96
2021/01/01 02:40:01;;;;;;;16.00;9.67;;;2.30;99.90;;;;;;6211840;23;19985;-96
2021/01/01 02:42:30;;;;;;;17.27;10.13;;;2.30;99.90;;;;;;6211374;23;19989;-96
2021/01/01 02:44:55;;;;;;;16.83;9.97;;;2.30;99.90;;;;;;6237131;23;20302;-96
2021/01/01 02:47:22;;;;;;;15.77;9.67;;;2.20;99.90;;;;;;6211880;23;20016;-96
2021/01/01 02:49:48;;;;;;;15.60;9.80;;;2.20;99.90;;;;;;6211452;23;19989;-94
2021/01/01 02:52:15;;;;;;;15.63;9.63;;;2.30;99.90;;;;;;6210378;23;20041;-95
2021/01/01 02:54:46;;;;;;;19.53;10.83;;;2.30;99.90;;;;;;6211911;23;19992;-95
2021/01/01 02:57:16;;;;;;;15.30;9.83;;;2.30;99.90;;;;;;6236897;23;20020;-96
2021/01/01 02:59:45;;;;;;;17.63;10.27;;;2.30;99.90;;;;;;6211396;23;20001;-95
2021/01/01 03:02:13;;;;;;;16.40;9.90;;;2.30;99.90;;;;;;6237043;23;19996;-96
2021/01/01 03:04:40;;;;;;;18.27;10.50;;;2.30;99.90;;;;;;6208033;23;20314;-96
2021/01/01 03:07:06;;;;;;;18.20;10.20;;;2.30;99.90;;;;;;6233624;23;19997;-95
2021/01/01 03:09:31;;;;;;;16.97;10.07;;;2.30;99.90;;;;;;6234529;23;19999;-95
2021/01/01 03:12:00;;;;;;;17.37;10.23;;;2.30;99.90;;;;;;6234552;23;19996;-95
2021/01/01 03:14:26;;;;;;;17.83;10.57;;;2.40;99.90;;;;;;6235991;23;19993;-96
2021/01/01 03:16:52;;;;;;;18.97;11.07;;;2.40;99.90;;;;;;6236415;23;20011;-95
2021/01/01 03:19:19;;;;;;;20.27;11.07;;;2.40;99.90;;;;;;6236833;23;20044;-95
2021/01/01 03:21:45;;;;;;;18.17;10.50;;;2.40;99.90;;;;;;6236831;23;19989;-95
2021/01/01 03:24:14;;;;;;;16.87;10.37;;;2.30;99.90;;;;;;6211776;23;19989;-95
2021/01/01 03:26:40;;;;;;;18.53;11.57;;;2.40;99.90;;;;;;6238258;23;20000;-95
2021/01/01 03:29:06;;;;;;;16.67;10.37;;;2.30;99.90;;;;;;6238027;23;19993;-95
2021/01/01 03:31:32;;;;;;;17.87;10.83;;;2.30;99.90;;;;;;6238224;23;19988;-95
2021/01/01 03:33:58;;;;;;;16.97;9.93;;;2.30;99.90;;;;;;6237911;23;20009;-96
2021/01/01 03:36:24;;;;;;;18.80;10.47;;;2.30;99.90;;;;;;6213249;23;20108;-96
2021/01/01 03:38:52;;;;;;;17.57;10.83;;;2.30;99.90;;;;;;6238002;23;19986;-96
2021/01/01 03:41:18;;;;;;;18.57;11.13;;;2.30;99.90;;;;;;6238187;23;20071;-96
2021/01/01 03:43:43;;;;;;;18.77;11.40;;;2.30;99.90;;;;;;6237437;23;19989;-96
2021/01/01 03:46:09;;;;;;;18.10;10.63;;;2.30;99.90;;;;;;6238310;23;19985;-96
2021/01/01 03:48:35;;;;;;;19.43;11.50;;;2.20;99.90;;;;;;6237764;23;20008;-96
2021/01/01 03:51:01;;;;;;;19.17;11.43;;;2.20;99.90;;;;;;6237385;23;20016;-96
2021/01/01 03:53:27;;;;;;;19.47;11.43;;;2.20;99.90;;;;;;6237551;23;19993;-96
2021/01/01 03:55:53;;;;;;;20.17;11.30;;;2.20;99.90;;;;;;6237223;23;19985;-96
2021/01/01 03:58:19;;;;;;;20.93;12.53;;;2.20;99.90;;;;;;6237662;23;19995;-95
2021/01/01 04:00:45;;;;;;;19.07;11.90;;;2.20;99.90;;;;;;6236569;23;19985;-96
2021/01/01 04:03:11;;;;;;;19.37;12.00;;;2.20;99.90;;;;;;6237669;23;19989;-95
2021/01/01 04:05:37;;;;;;;20.40;11.63;;;2.20;99.90;;;;;;6234270;23;19989;-95
2021/01/01 04:08:03;;;;;;;19.47;11.90;;;2.20;99.90;;;;;;6237826;23;19989;-95
2021/01/01 04:10:28;;;;;;;19.67;12.03;;;2.20;99.90;;;;;;6236802;23;19999;-95
2021/01/01 04:15:28;;;;;;;19.67;12.30;;;2.20;99.90;;;;;;6188543;23;20021;-93
2021/01/01 04:17:54;;;;;;;19.40;12.30;;;2.20;99.90;;;;;;6166666;23;20033;-93
2021/01/01 04:20:19;;;;;;;18.57;12.03;;;2.20;99.90;;;;;;6164909;23;20359;-91
2021/01/01 04:22:45;;;;;;;20.07;12.20;;;2.20;99.90;;;;;;6190696;23;20352;-91
2021/01/01 04:25:11;;;;;;;20.23;12.87;;;2.10;99.90;;;;;;6190661;23;20001;-91
2021/01/01 04:27:37;;;;;;;20.67;12.60;;;2.20;99.90;;;;;;6186492;23;20063;-92
2021/01/01 04:30:03;;;;;;;20.93;12.30;;;2.20;99.90;;;;;;6185854;23;20001;-91
2021/01/01 04:32:29;;;;;;;20.80;12.37;;;2.20;99.90;;;;;;6189557;23;20001;-91
2021/01/01 04:34:54;;;;;;;21.20;13.00;;;2.20;99.90;;;;;;6188319;23;20012;-92
2021/01/01 04:37:20;;;;;;;22.27;12.83;;;2.20;99.90;;;;;;6187544;23;20005;-93
2021/01/01 04:39:46;;;;;;;22.33;12.30;;;2.30;99.90;;;;;;6190137;23;20080;-92
2021/01/01 04:42:13;;;;;;;21.10;12.33;;;2.20;99.90;;;;;;6189179;23;20005;-92
2021/01/01 04:44:39;;;;;;;21.83;12.73;;;2.20;99.90;;;;;;6192183;23;20484;-92
2021/01/01 04:47:07;;;;;;;22.17;13.63;;;2.20;99.90;;;;;;6190149;23;20040;-92
2021/01/01 04:49:33;;;;;;;21.30;13.03;;;2.20;99.90;;;;;;6191313;23;20001;-92
2021/01/01 04:52:01;;;;;;;24.03;13.50;;;2.30;99.90;;;;;;6189309;23;20060;-92
2021/01/01 04:54:32;;;;;;;21.53;12.83;;;2.20;99.90;;;;;;6191295;23;20001;-92
2021/01/01 04:56:57;;;;;;;22.60;12.83;;;2.30;99.90;;;;;;6166514;23;20033;-93
2021/01/01 04:59:23;;;;;;;24.63;13.83;;;2.20;99.90;;;;;;6188194;23;20012;-92
2021/01/01 05:01:49;;;;;;;24.13;13.90;;;2.20;99.90;;;;;;6190331;23;20001;-93
2021/01/01 05:04:14;;;;;;;23.80;14.40;;;2.20;99.90;;;;;;6182854;23;20212;-91
2021/01/01 05:06:42;;;;;;;22.87;13.57;;;2.20;99.90;;;;;;6187473;23;20428;-90
2021/01/01 05:09:10;;;;;;;22.53;13.23;;;2.20;99.90;;;;;;6189306;23;20005;-93
2021/01/01 05:11:35;;;;;;;24.60;13.53;;;2.20;99.90;;;;;;6164247;23;20095;-92
2021/01/01 05:14:04;;;;;;;23.07;14.23;;;2.20;99.90;;;;;;6161826;23;20432;-93
2021/01/01 05:16:29;;;;;;;23.33;13.53;;;2.20;99.90;;;;;;6165258;23;20470;-93
2021/01/01 05:18:56;;;;;;;25.30;14.07;;;2.20;99.90;;;;;;6187167;23;20005;-92
2021/01/01 05:21:29;;;;;;;26.37;14.53;;;2.20;99.90;;;;;;6164120;23;20005;-92
2021/01/01 05:23:55;;;;;;;25.47;14.23;;;2.20;99.90;;;;;;6189267;23;20005;-91
2021/01/01 05:26:28;;;;;;;23.43;13.90;;;2.20;99.90;;;;;;6165298;23;20001;-92
2021/01/01 05:28:55;;;;;;;25.23;14.17;;;2.30;99.90;;;;;;6190425;23;20079;-93
2021/01/01 05:31:31;;;;;;;24.07;14.53;;;2.20;99.90;;;;;;6190205;23;20005;-91
2021/01/01 05:34:06;;;;;;;24.07;14.27;;;2.20;99.90;;;;;;6191255;23;20005;-92
2021/01/01 05:36:46;;;;;;;25.93;14.83;;;2.20;99.90;;;;;;6164644;23;20005;-92
2021/01/01 05:39:18;;;;;;;26.43;14.03;;;2.20;99.90;;;;;;6189344;23;20427;-93
2021/01/01 05:41:45;;;;;;;23.27;14.03;;;2.20;99.90;;;;;;6191156;23;20075;-92
2021/01/01 05:44:31;;;;;;;25.37;14.03;;;2.20;99.90;;;;;;6164370;23;20032;-91
2021/01/01 05:47:08;;;;;;;27.60;15.00;;;2.20;99.90;;;;;;6164240;23;20398;-92
2021/01/01 05:49:36;;;;;;;25.00;14.80;;;2.20;99.90;;;;;;6165115;23;20009;-91
2021/01/01 05:52:15;;;;;;;26.63;14.80;;;2.20;99.90;;;;;;6163431;23;20012;-89
2021/01/01 05:54:47;;;;;;;23.93;13.97;;;2.10;99.90;;;;;;6160870;23;20002;-89
2021/01/01 05:57:16;;;;;;;27.20;14.70;;;2.20;99.90;;;;;;6160459;23;20040;-91
2021/01/01 05:59:47;;;;;;;25.10;14.43;;;2.20;99.90;;;;;;6160506;23;20095;-90
2021/01/01 06:02:13;;;;;;;28.23;14.90;;;2.20;99.90;;;;;;6162673;23;20005;-91
2021/01/01 06:04:40;;;;;;;27.03;15.70;;;2.20;99.90;;;;;;6203671;22;19992;-90
2021/01/01 06:07:11;;;;;;;27.17;15.70;;;2.30;99.90;;;;;;6195929;22;20009;-91
2021/01/01 06:09:38;;;;;;;26.87;15.07;;;2.30;99.90;;;;;;6161336;23;20013;-91
2021/01/01 06:12:08;;;;;;;27.73;16.30;;;2.30;99.90;;;;;;6160838;23;20016;-90
2021/01/01 06:14:41;;;;;;;28.10;16.40;;;2.30;99.90;;;;;;6160661;23;20019;-91
2021/01/01 06:17:09;;;;;;;26.17;15.33;;;2.20;99.90;;;;;;6187693;23;19993;-91
2021/01/01 06:19:46;;;;;;;26.80;15.63;;;2.20;99.90;;;;;;6161042;23;20005;-91
2021/01/01 06:22:16;;;;;;;27.33;15.83;;;2.20;99.90;;;;;;6162050;23;20005;-92
2021/01/01 06:24:45;;;;;;;24.33;13.30;;;2.20;99.90;;;;;;6162121;23;20019;-91
2021/01/01 06:27:12;;;;;;;20.10;12.60;;;2.20;99.90;;;;;;6162979;23;20036;-91
2021/01/01 06:29:43;;;;;;;17.67;11.20;;;2.20;99.90;;;;;;6160428;23;20012;-91
2021/01/01 06:32:10;;;;;;;17.23;10.10;;;2.20;99.90;;;;;;6188643;23;20032;-91
2021/01/01 06:34:36;;;;;;;16.47;9.07;;;2.20;99.90;;;;;;6190012;23;20319;-92
2021/01/01 06:37:02;;;;;;;14.43;8.73;;;2.20;99.90;;;;;;6180370;23;20008;-91
2021/01/01 06:39:42;;;;;;;14.10;8.10;;;2.20;99.90;;;;;;6209054;22;20005;-88
2021/01/01 06:42:09;;;;;;;12.97;7.63;;;2.20;99.90;;;;;;6183660;23;20019;-89
2021/01/01 06:44:42;;;;;;;11.07;6.80;;;2.20;99.90;;;;;;6184459;23;19997;-88
2021/01/01 06:47:40;;;;;;;13.33;6.87;;;2.10;99.90;;;;;;6183980;22;20012;-88
2021/01/01 06:50:33;;;;;;;12.27;6.60;;;2.10;99.90;;;;;;6208431;22;19989;-88
2021/01/01 06:53:02;;;;;;;13.95;7.00;;;2.10;99.90;;;;;;6183815;22;20005;-87
2021/01/01 06:55:44;;;;;;;10.70;6.70;;;2.00;99.90;;;;;;6209841;22;20013;-89
2021/01/01 06:58:10;;;;;;;;;;;2.00;99.90;;;;;;6183245;23;20009;-90
2021/01/01 07:00:45;;;;;;;10.67;6.90;;;2.00;99.90;;;;;;6201011;22;19908;-91
2021/01/01 07:03:29;;;;;;;11.50;7.23;;;2.00;99.90;;;;;;6167945;23;20042;-90
2021/01/01 07:06:02;;;;;;;11.97;7.60;;;1.90;99.90;;;;;;6161145;23;20029;-90
2021/01/01 07:08:40;;;;;;;12.43;7.17;;;1.90;99.90;;;;;;6194854;23;20009;-89
2021/01/01 07:11:25;;;;;;;12.10;7.37;;;1.90;99.90;;;;;;6166175;23;20008;-90
2021/01/01 07:13:53;;;;;;;11.03;7.00;;;1.90;99.90;;;;;;6166797;23;20115;-91
2021/01/01 07:16:20;;;;;;;11.43;7.30;;;1.90;99.90;;;;;;6166729;23;20001;-91
2021/01/01 07:18:46;;;;;;;13.03;7.33;;;1.90;99.90;;;;;;6191858;23;20009;-91
2021/01/01 07:21:14;;;;;;;12.50;7.33;;;1.90;99.90;;;;;;6192569;23;20133;-91
2021/01/01 07:23:41;;;;;;;10.67;6.03;;;1.90;99.90;;;;;;6189628;23;20084;-91
2021/01/01 07:26:07;;;;;;;10.23;6.03;;;2.00;99.90;;;;;;6162324;23;20428;-92
2021/01/01 07:28:33;;;;;;;9.50;5.33;;;2.00;99.90;;;;;;6185869;23;20029;-91
2021/01/01 07:30:59;;;;;;;10.73;6.67;;;2.00;99.90;;;;;;6189417;23;20446;-91
2021/01/01 07:33:29;;;;;;;9.07;5.33;;;1.90;99.90;;;;;;6186127;23;20080;-91
2021/01/01 07:36:00;;;;;;;9.10;5.33;;;1.90;99.90;;;;;;6163104;23;19997;-91
2021/01/01 07:38:28;;;;;;;9.13;6.13;;;2.00;99.90;;;;;;6163554;23;20150;-90
2021/01/01 07:40:54;;;;;;;9.97;5.60;;;1.90;99.90;;;;;;6163124;23;20001;-92
2021/01/01 07:43:20;;;;;;;9.90;5.70;;;1.90;99.90;;;;;;6163097;23;20104;-92
2021/01/01 07:45:46;;;;;;;10.37;5.33;;;1.90;99.90;;;;;;6187947;23;20505;-91
2021/01/01 07:48:13;;;;;;;9.50;5.33;;;1.90;99.90;;;;;;6168157;23;20024;-90
2021/01/01 07:50:39;;;;;;;7.93;5.20;;;1.90;99.90;;;;;;6179937;22;20043;-89
2021/01/01 07:53:09;;;;;;;8.47;4.87;;;1.90;99.90;;;;;;6184729;22;20020;-89
2021/01/01 07:55:37;;;;;;;9.63;5.43;;;1.90;99.90;;;;;;6185629;22;19993;-89
2021/01/01 07:58:11;;;;;;;8.90;5.03;;;1.90;99.90;;;;;;6185257;22;20009;-89
2021/01/01 08:00:38;;;;;;;8.47;4.30;;;1.90;99.90;;;;;;6211555;22;20150;-89
2021/01/01 08:03:06;;;;;;;8.50;4.67;;;1.90;99.90;;;;;;6210198;22;20008;-88
2021/01/01 08:05:33;;;;;;;7.77;4.50;;;2.00;99.90;;;;;;6179586;22;20013;-88
2021/01/01 08:08:25;;;;;;;8.20;4.70;;;2.00;99.90;;;;;;6210737;22;20009;-89
2021/01/01 08:10:56;;;;;;;8.05;4.57;;;2.00;99.90;;;;;;6185268;22;20000;-89
2021/01/01 08:13:32;;;;;;;9.80;4.83;;;2.00;99.90;;;;;;6184495;22;20048;-89
2021/01/01 08:16:09;;;;;;;8.80;5.00;;;2.00;99.90;;;;;;6185241;23;20028;-90
2021/01/01 08:18:34;;;;;;;8.73;4.60;;;2.00;99.90;;;;;;6182699;23;19993;-91
2021/01/01 08:21:02;;;;;;;9.67;4.80;;;2.00;99.90;;;;;;6197556;23;20043;-91
2021/01/01 08:23:50;;;;;;;8.37;4.73;;;2.00;99.90;;;;;;6187777;23;20079;-92
2021/01/01 08:26:17;;;;;;;7.50;4.30;;;2.00;99.90;;;;;;6160581;23;20088;-91
2021/01/01 08:28:44;;;;;;;6.90;3.80;;;2.00;99.90;;;;;;6159729;23;20443;-91
2021/01/01 08:31:11;;;;;;;7.40;4.17;;;2.00;99.90;;;;;;6159286;23;20009;-91
2021/01/01 08:33:41;;;;;;;7.70;4.10;;;2.00;99.90;;;;;;6159379;23;20506;-91
2021/01/01 08:36:09;;;;;;;7.77;4.17;;;2.00;99.90;;;;;;6158537;23;20304;-92
2021/01/01 08:38:37;;;;;;;7.53;4.30;;;2.00;99.90;;;;;;6162200;23;20011;-92
2021/01/01 08:41:02;;;;;;;7.97;4.43;;;2.00;99.90;;;;;;6186416;23;20008;-91
2021/01/01 08:43:29;;;;;;;9.00;5.13;;;2.00;99.90;;;;;;6184344;23;20005;-91
2021/01/01 08:45:56;;;;;;;7.40;4.40;;;2.00;99.90;;;;;;6159515;23;20083;-91
2021/01/01 08:48:27;;;;;;;8.10;4.70;;;2.00;99.90;;;;;;6159164;23;20032;-91
2021/01/01 08:50:53;;;;;;;8.23;4.40;;;2.10;99.90;;;;;;6160224;23;20005;-91
2021/01/01 08:53:19;;;;;;;7.80;4.43;;;2.10;99.90;;;;;;6160037;23;20089;-90
2021/01/01 08:55:57;;;;;;;8.23;4.30;;;2.10;99.90;;;;;;6184597;23;19997;-91
2021/01/01 08:58:23;;;;;;;7.10;4.13;;;2.20;99.90;;;;;;6185756;23;20257;-90
2021/01/01 09:00:50;;;;;;;6.87;4.37;;;2.10;99.90;;;;;;6185793;23;20028;-90
2021/01/01 09:03:16;;;;;;;7.50;4.13;;;2.10;99.90;;;;;;6184225;23;20008;-91
2021/01/01 09:05:42;;;;;;;7.53;3.77;;;2.20;99.90;;;;;;6160707;23;20439;-90
2021/01/01 09:08:12;;;;;;;7.23;3.87;;;2.20;99.90;;;;;;6183095;23;20087;-90
2021/01/01 09:10:46;;;;;;;6.77;3.70;;;2.30;99.90;;;;;;6159738;23;20013;-89
2021/01/01 09:13:16;;;;;;;5.90;3.20;;;2.30;99.90;;;;;;6158552;23;20052;-92
2021/01/01 09:15:42;;;;;;;7.53;3.40;;;2.40;99.90;;;;;;6193255;23;20002;-89
2021/01/01 09:18:09;;;;;;;5.67;2.87;;;2.40;99.90;;;;;;6160520;23;20567;-92
2021/01/01 09:20:37;;;;;;;5.73;2.93;;;2.40;99.90;;;;;;6157882;23;20400;-90
2021/01/01 09:23:03;;;;;;;5.27;2.70;;;2.30;99.90;;;;;;6158430;23;20009;-90
2021/01/01 09:25:30;;;;;;;6.13;3.07;;;2.30;99.90;;;;;;6183940;23;20054;-91
2021/01/01 09:28:02;;;;;;;5.27;2.80;;;2.30;99.90;;;;;;6158218;23;20059;-91
2021/01/01 09:30:32;;;;;;;5.43;2.77;;;2.20;99.90;;;;;;6178135;23;20005;-90
2021/01/01 09:33:03;;;;;;;6.33;3.40;;;2.30;99.90;;;;;;6159009;23;20024;-88
2021/01/01 09:35:30;;;;;;;6.40;3.10;;;2.30;99.90;;;;;;6150005;23;20095;-88
2021/01/01 09:38:05;;;;;;;5.57;3.10;;;2.20;99.90;;;;;;6158237;23;20008;-91
2021/01/01 09:48:24;;;;;;;5.87;3.10;;;2.50;99.90;;;;;;6182696;23;20028;-90
2021/01/01 09:50:50;;;;;;;6.03;3.30;;;2.50;99.90;;;;;;6156341;23;20005;-91
2021/01/01 09:53:16;;;;;;;5.87;3.27;;;2.60;99.90;;;;;;6178654;23;20098;-90
2021/01/01 09:55:45;;;;;;;6.10;3.47;;;2.60;99.90;;;;;;6181576;23;20435;-91
2021/01/01 09:58:18;;;;;;;6.40;3.40;;;2.60;99.90;;;;;;6182611;23;20388;-92
2021/01/01 10:00:45;;;;;;;6.30;3.37;;;2.70;99.90;;;;;;6181638;23;20012;-90
2021/01/01 10:03:20;;;;;;;6.53;3.83;;;2.70;99.90;;;;;;6184757;23;20013;-91
2021/01/01 10:05:50;;;;;;;5.97;3.30;;;2.80;99.90;;;;;;6182722;23;20293;-91
2021/01/01 10:08:16;;;;;;;5.33;2.90;;;2.80;99.90;;;;;;6179525;23;20491;-87
2021/01/01 10:10:44;;;;;;;6.00;3.50;;;2.90;99.90;;;;;;6179200;23;20013;-86
2021/01/01 10:13:13;;;;;;;6.97;3.47;;;2.90;99.90;;;;;;6181664;23;20343;-86
2021/01/01 10:15:42;;;;;;;5.67;3.50;;;2.90;99.90;;;;;;6182449;23;20012;-84
2021/01/01 10:28:27;;;;;;;5.00;2.47;;;3.10;99.90;;;;;;6181700;23;20436;-90
2021/01/01 10:30:56;;;;;;;4.70;2.60;;;3.10;99.90;;;;;;6183592;23;20005;-92
2021/01/01 10:43:45;;;;;;;5.10;2.60;;;3.00;99.90;;;;;;6208948;23;20029;-93
2021/01/01 10:46:26;;;;;;;4.30;2.67;;;3.00;99.90;;;;;;6175696;23;20064;-94
2021/01/01 10:48:52;;;;;;;5.53;2.53;;;3.10;99.90;;;;;;6179894;23;19990;-94
2021/01/01 10:51:26;;;;;;;5.50;2.93;;;3.10;99.90;;;;;;6181750;23;19992;-95
2021/01/01 10:54:01;;;;;;;6.07;3.13;;;3.10;99.90;;;;;;6203187;23;20101;-94
2021/01/01 10:56:28;;;;;;;5.83;3.10;;;3.10;99.90;;;;;;6199150;23;20440;-94
2021/01/01 10:58:54;;;;;;;6.00;2.57;;;3.10;99.90;;;;;;6199969;23;20002;-92
2021/01/01 11:01:32;;;;;;;4.60;2.60;;;3.20;99.90;;;;;;6202918;23;20028;-93
2021/01/01 11:04:01;;;;;;;5.10;2.70;;;3.20;99.90;;;;;;6187696;23;20044;-92
2021/01/01 11:06:33;;;;;;;5.40;3.10;;;3.20;99.90;;;;;;6185169;23;20012;-92
2021/01/01 11:09:02;;;;;;;5.47;2.70;;;3.20;99.90;;;;;;6184201;23;20009;-93
2021/01/01 11:11:36;;;;;;;4.60;2.40;;;3.30;99.90;;;;;;6183836;23;20077;-92
2021/01/01 12:59:49;;;;;;;;;;;;;;;;;;;;;
2021/01/01 13:02:22;;;;;;;5.50;2.90;;;3.30;99.90;;;;;;6186558;23;19992;-95
2021/01/01 13:05:11;;;;;;;4.90;2.70;;;3.30;99.90;;;;;;6186440;23;20074;-96
2021/01/01 13:07:38;;;;;;;4.77;2.60;;;3.40;99.90;;;;;;6186325;23;19985;-93
2021/01/01 13:10:20;;;;;;;5.43;2.93;;;3.40;99.90;;;;;;6184878;23;19986;-95
2021/01/01 13:12:57;;;;;;;5.38;2.90;;;3.30;99.90;;;;;;6186763;23;19989;-96
2021/01/01 13:15:37;;;;;;;5.10;2.60;;;3.50;99.90;;;;;;6186674;23;19981;-95
2021/01/01 13:21:08;;;;;;;;;;;;;;;;;;;;;
2021/01/01 13:50:01;;;;;;;;;;;;;;;;;;;;;
2021/01/01 13:52:27;;;;;;;6.13;3.17;;;3.60;99.90;;;;;;6211812;23;19984;-95
2021/01/01 13:54:53;;;;;;;6.10;2.93;;;3.60;99.90;;;;;;6211829;23;19981;-95
2021/01/01 13:57:19;;;;;;;6.20;3.67;;;3.70;99.90;;;;;;6207151;23;19985;-95
2021/01/01 13:59:44;;;;;;;6.13;3.33;;;3.70;99.90;;;;;;6210590;23;19992;-96
2021/01/01 14:02:10;;;;;;;8.07;3.80;;;3.80;99.90;;;;;;6211599;23;19985;-96
2021/01/01 14:04:36;;;;;;;6.40;3.60;;;3.80;99.90;;;;;;6211439;23;19989;-95
2021/01/01 14:07:08;;;;;;;7.17;3.40;;;4.00;99.90;;;;;;6211193;23;19991;-96
2021/01/01 14:09:34;;;;;;;6.00;3.60;;;4.10;99.90;;;;;;6185052;23;19989;-95
2021/01/01 14:12:11;;;;;;;6.03;3.83;;;4.00;99.90;;;;;;6211216;23;20000;-96
2021/01/01 14:14:37;;;;;;;7.10;4.17;;;3.90;99.90;;;;;;6186811;23;19985;-96
2021/01/01 14:17:03;;;;;;;7.23;3.93;;;3.80;99.90;;;;;;6211411;23;20016;-96
2021/01/01 14:19:29;;;;;;;8.33;4.13;;;3.80;99.90;;;;;;6211343;23;19985;-96
2021/01/01 14:21:58;;;;;;;7.17;4.20;;;3.70;99.90;;;;;;6211096;23;20024;-96
2021/01/01 14:24:24;;;;;;;6.90;4.00;;;3.70;99.90;;;;;;6186857;23;19989;-96
2021/01/01 14:26:57;;;;;;;7.70;4.60;;;3.60;99.90;;;;;;6209040;23;20047;-96
2021/01/01 14:29:26;;;;;;;8.37;4.40;;;3.60;99.90;;;;;;6211203;23;19985;-96
2021/01/01 14:31:56;;;;;;;8.00;4.37;;;3.50;99.90;;;;;;6185062;23;19985;-96
2021/01/01 14:34:30;;;;;;;8.43;4.60;;;3.40;99.90;;;;;;6186013;23;20009;-96
2021/01/01 14:36:59;;;;;;;8.60;4.80;;;3.40;99.90;;;;;;6186709;23;19985;-96
2021/01/01 14:39:37;;;;;;;8.90;5.20;;;3.30;99.90;;;;;;6183614;23;19993;-96
2021/01/01 14:42:22;;;;;;;8.57;5.20;;;3.30;99.90;;;;;;6186169;23;20000;-96
2021/01/01 14:44:49;;;;;;;8.73;5.00;;;3.30;99.90;;;;;;6186230;23;19995;-96
2021/01/01 14:47:15;;;;;;;9.93;5.50;;;3.30;99.90;;;;;;6211529;23;19993;-96
2021/01/01 14:49:41;;;;;;;9.57;5.47;;;3.10;99.90;;;;;;6210234;23;19993;-96
2021/01/01 14:52:07;;;;;;;9.00;4.93;;;3.20;99.90;;;;;;6210441;23;19985;-96
2021/01/01 14:54:33;;;;;;;9.60;5.87;;;3.10;99.90;;;;;;6210974;23;19986;-96
2021/01/01 14:57:10;;;;;;;12.67;5.80;;;3.20;99.90;;;;;;6183520;23;19985;-95
2021/01/01 14:59:37;;;;;;;12.20;5.90;;;3.10;99.90;;;;;;6185068;23;19985;-96
2021/01/01 15:02:10;;;;;;;10.07;6.03;;;3.10;99.90;;;;;;6210831;23;19989;-96
2021/01/01 15:04:39;;;;;;;10.73;6.47;;;3.00;99.90;;;;;;6186538;23;20019;-96
2021/01/01 15:07:09;;;;;;;13.17;6.73;;;3.00;99.90;;;;;;6185866;23;20036;-95
2021/01/01 15:09:35;;;;;;;10.47;5.97;;;2.90;99.90;;;;;;6179424;23;19997;-95
2021/01/01 15:12:09;;;;;;;12.47;7.07;;;3.00;99.90;;;;;;6199333;23;20017;-96
2021/01/01 15:14:43;;;;;;;13.30;6.97;;;2.80;99.90;;;;;;6181301;23;19994;-96
2021/01/01 15:17:25;;;;;;;11.23;6.10;;;2.80;99.90;;;;;;6156313;23;20002;-95
2021/01/01 15:19:57;;;;;;;13.83;6.73;;;2.70;99.90;;;;;;6155176;23;19993;-96
2021/01/01 15:22:24;;;;;;;;;;;2.70;99.90;;;;;;6166622;23;19997;-95
2021/01/01 15:24:51;;;;;;;11.93;6.47;;;2.60;99.90;;;;;;6182249;23;19939;-95
2021/01/01 15:27:28;;;;;;;11.73;6.68;;;2.60;99.90;;;;;;6181560;23;20017;-96
2021/01/01 15:30:01;;;;;;;14.10;7.20;;;2.60;99.90;;;;;;6182985;23;20041;-96
2021/01/01 15:32:30;;;;;;;12.20;7.07;;;2.50;99.90;;;;;;6182699;23;19993;-96
2021/01/01 15:34:56;;;;;;;12.13;7.67;;;2.50;99.90;;;;;;6183050;23;20323;-95
2021/01/01 15:37:22;;;;;;;13.23;7.27;;;2.50;99.90;;;;;;6182759;23;19989;-96
2021/01/01 15:39:56;;;;;;;13.43;7.87;;;2.40;99.90;;;;;;6181895;23;19982;-96
2021/01/01 15:42:30;;;;;;;12.33;7.17;;;2.40;99.90;;;;;;6183176;23;20057;-96
2021/01/01 15:45:00;;;;;;;11.53;7.20;;;2.40;99.90;;;;;;6182924;23;19990;-96
2021/01/01 15:47:33;;;;;;;11.63;6.63;;;2.30;99.90;;;;;;6182652;23;19990;-96
2021/01/01 15:50:07;;;;;;;12.63;7.30;;;2.30;99.90;;;;;;6180842;23;20016;-95
2021/01/01 15:52:33;;;;;;;13.33;7.27;;;2.20;99.90;;;;;;6182845;23;20053;-96
2021/01/01 15:54:59;;;;;;;12.27;7.33;;;2.20;99.90;;;;;;6182713;23;20017;-95
2021/01/01 15:57:34;;;;;;;13.07;7.73;;;2.20;99.90;;;;;;6177954;23;20004;-95
2021/01/01 16:00:07;;;;;;;14.43;8.60;;;2.10;99.90;;;;;;6182221;23;20025;-94
2021/01/01 16:02:33;;;;;;;16.25;8.73;;;2.10;99.90;;;;;;6182869;23;19985;-96
2021/01/01 16:05:08;;;;;;;15.97;9.27;;;2.00;99.90;;;;;;6182226;23;19988;-95
2021/01/01 16:07:38;;;;;;;15.90;9.33;;;2.00;99.90;;;;;;6183149;23;20012;-95
2021/01/01 16:10:11;;;;;;;15.77;9.77;;;2.00;99.90;;;;;;6181958;23;19993;-96
2021/01/01 16:12:43;;;;;;;;;;;1.90;99.90;;;;;;6182657;23;19994;-95
2021/01/01 16:15:21;;;;;;;18.27;9.55;;;1.90;99.90;;;;;;6182509;23;19937;-95
2021/01/01 16:17:55;;;;;;;18.53;10.57;;;1.90;99.90;;;;;;6182719;23;19981;-96
2021/01/01 18:35:22;;;;;;;24.23;15.73;;;0.90;99.90;;;;;;6187002;23;20020;-93
2021/01/01 18:38:03;;;;;;;23.83;13.38;;;0.90;99.90;;;;;;6174704;23;20009;-94
2021/01/01 18:40:33;;;;;;;16.00;9.48;;;0.90;99.90;;;;;;6174615;23;20079;-95
2021/01/01 18:42:59;;;;;;;22.40;11.53;;;0.80;99.90;;;;;;6172823;23;20036;-94
2021/01/01 18:48:30;;;;;;;18.60;11.27;;;0.80;99.90;;;;;;6199093;23;20193;-94
2021/01/01 18:51:46;;;;;;;23.23;12.23;;;0.80;99.90;;;;;;6187599;23;20005;-93
2021/01/01 18:54:34;;;;;;;;;;;;;;;;;;;;;
2021/01/01 18:57:15;;;;;;;18.23;10.67;;;0.80;99.90;;;;;;6200955;22;20000;-89
2021/01/01 18:59:56;;;;;;;20.73;11.83;;;0.80;99.90;;;;;;6182068;22;19993;-93
2021/01/01 19:02:38;;;;;;;21.40;12.35;;;0.80;99.90;;;;;;6206715;22;20004;-93
2021/01/01 19:05:18;;;;;;;20.47;11.43;;;0.80;99.90;;;;;;6174087;23;20005;-91